sensor_id;sensor_type;location;lat;lon;timestamp;pressure;altitude;pressure_sealevel;temperature;humidity
3294;BME280;1659;51.470;6.770;2023-06-14T00:01:45;101125.72;;;20.19;37.47
3294;BME280;1659;51.470;6.770;2023-06-14T00:04:12;101134.81;;;20.17;37.39
3294;BME280;1659;51.470;6.770;2023-06-14T00:06:43;101134.97;;;20.14;37.59
3294;BME280;1659;51.470;6.770;2023-06-14T00:09:11;101136.09;;;20.10;37.67
3294;BME280;1659;51.470;6.770;2023-06-14T00:11:38;101135.31;;;20.08;37.60
3294;BME280;1659;51.470;6.770;2023-06-14T00:14:04;101126.44;;;20.06;37.63
3294;BME280;1659;51.470;6.770;2023-06-14T00:16:31;101126.63;;;20.03;37.91
3294;BME280;1659;51.470;6.770;2023-06-14T00:18:58;101138.38;;;20.00;37.79
3294;BME280;1659;51.470;6.770;2023-06-14T00:21:25;101146.50;;;19.98;37.79
3294;BME280;1659;51.470;6.770;2023-06-14T00:23:55;101140.28;;;19.98;37.70
3294;BME280;1659;51.470;6.770;2023-06-14T00:26:21;101138.53;;;19.97;37.97
3294;BME280;1659;51.470;6.770;2023-06-14T00:28:48;101145.78;;;19.95;37.90
3294;BME280;1659;51.470;6.770;2023-06-14T00:31:14;101152.28;;;19.91;38.21
3294;BME280;1659;51.470;6.770;2023-06-14T00:33:41;101147.06;;;19.88;38.18
3294;BME280;1659;51.470;6.770;2023-06-14T00:36:07;101147.22;;;19.85;38.28
3294;BME280;1659;51.470;6.770;2023-06-14T00:38:34;101158.03;;;19.83;38.45
3294;BME280;1659;51.470;6.770;2023-06-14T00:41:02;101156.44;;;19.79;38.52
3294;BME280;1659;51.470;6.770;2023-06-14T00:43:28;101152.19;;;19.75;38.79
3294;BME280;1659;51.470;6.770;2023-06-14T00:45:55;101160.28;;;19.73;38.74
3294;BME280;1659;51.470;6.770;2023-06-14T00:48:22;101154.13;;;19.71;38.79
3294;BME280;1659;51.470;6.770;2023-06-14T00:50:50;101154.13;;;19.71;39.03
3294;BME280;1659;51.470;6.770;2023-06-14T00:53:18;101156.00;;;19.69;39.11
3294;BME280;1659;51.470;6.770;2023-06-14T00:55:46;101156.00;;;19.69;39.42
3294;BME280;1659;51.470;6.770;2023-06-14T00:58:14;101163.84;;;19.74;39.09
3294;BME280;1659;51.470;6.770;2023-06-14T01:00:41;101168.22;;;19.76;39.34
3294;BME280;1659;51.470;6.770;2023-06-14T01:03:08;101162.84;;;19.76;39.47
3294;BME280;1659;51.470;6.770;2023-06-14T01:05:37;101166.41;;;19.77;39.35
3294;BME280;1659;51.470;6.770;2023-06-14T01:08:14;101164.72;;;19.74;39.50
3294;BME280;1659;51.470;6.770;2023-06-14T01:10:52;101168.47;;;19.70;39.82
3294;BME280;1659;51.470;6.770;2023-06-14T01:13:24;101162.34;;;19.68;39.56
3294;BME280;1659;51.470;6.770;2023-06-14T01:15:54;101165.16;;;19.65;39.68
3294;BME280;1659;51.470;6.770;2023-06-14T01:18:22;101168.81;;;19.64;39.76
3294;BME280;1659;51.470;6.770;2023-06-14T01:20:49;101159.94;;;19.62;39.50
3294;BME280;1659;51.470;6.770;2023-06-14T01:23:20;101162.81;;;19.59;39.86
3294;BME280;1659;51.470;6.770;2023-06-14T01:25:47;101173.59;;;19.57;40.23
3294;BME280;1659;51.470;6.770;2023-06-14T01:28:19;101170.22;;;19.54;40.05
3294;BME280;1659;51.470;6.770;2023-06-14T01:30:49;101163.97;;;19.53;40.06
3294;BME280;1659;51.470;6.770;2023-06-14T01:33:19;101162.31;;;19.51;39.85
3294;BME280;1659;51.470;6.770;2023-06-14T01:35:48;101168.69;;;19.48;39.94
3294;BME280;1659;51.470;6.770;2023-06-14T01:38:16;101165.28;;;19.44;40.02
3294;BME280;1659;51.470;6.770;2023-06-14T01:40:45;101167.09;;;19.44;40.07
3294;BME280;1659;51.470;6.770;2023-06-14T01:43:14;101165.59;;;19.38;40.05
3294;BME280;1659;51.470;6.770;2023-06-14T01:45:42;101169.34;;;19.34;39.98
3294;BME280;1659;51.470;6.770;2023-06-14T01:48:11;101162.44;;;19.30;40.19
3294;BME280;1659;51.470;6.770;2023-06-14T01:50:38;101168.81;;;19.28;40.27
3294;BME280;1659;51.470;6.770;2023-06-14T01:53:07;101176.06;;;19.26;40.24
3294;BME280;1659;51.470;6.770;2023-06-14T01:55:35;101169.09;;;19.21;40.26
3294;BME280;1659;51.470;6.770;2023-06-14T01:58:04;101177.28;;;19.18;40.29
3294;BME280;1659;51.470;6.770;2023-06-14T02:00:30;101167.72;;;19.13;40.30
3294;BME280;1659;51.470;6.770;2023-06-14T02:02:57;101169.69;;;19.09;40.47
3294;BME280;1659;51.470;6.770;2023-06-14T02:05:24;101171.66;;;19.05;40.59
3294;BME280;1659;51.470;6.770;2023-06-14T02:07:50;101167.41;;;19.01;40.48
3294;BME280;1659;51.470;6.770;2023-06-14T02:10:17;101171.13;;;18.97;40.69
3294;BME280;1659;51.470;6.770;2023-06-14T02:12:44;101177.59;;;18.93;40.66
3294;BME280;1659;51.470;6.770;2023-06-14T02:15:12;101174.25;;;18.88;40.70
3294;BME280;1659;51.470;6.770;2023-06-14T02:17:42;101172.69;;;18.84;40.90
3294;BME280;1659;51.470;6.770;2023-06-14T02:20:09;101183.50;;;18.81;40.83
3294;BME280;1659;51.470;6.770;2023-06-14T02:22:35;101177.47;;;18.76;41.04
3294;BME280;1659;51.470;6.770;2023-06-14T02:25:02;101179.44;;;18.72;40.88
3294;BME280;1659;51.470;6.770;2023-06-14T02:27:29;101177.75;;;18.69;41.00
3294;BME280;1659;51.470;6.770;2023-06-14T02:29:56;101177.91;;;18.66;41.05
3294;BME280;1659;51.470;6.770;2023-06-14T02:32:23;101179.69;;;18.66;41.00
3294;BME280;1659;51.470;6.770;2023-06-14T02:34:51;101182.59;;;18.61;40.83
3294;BME280;1659;51.470;6.770;2023-06-14T02:37:18;101177.47;;;18.57;41.10
3294;BME280;1659;51.470;6.770;2023-06-14T02:39:45;101186.50;;;18.54;41.00
3294;BME280;1659;51.470;6.770;2023-06-14T02:42:11;101184.81;;;18.52;41.26
3294;BME280;1659;51.470;6.770;2023-06-14T02:44:38;101187.63;;;18.48;41.21
3294;BME280;1659;51.470;6.770;2023-06-14T02:47:05;101185.13;;;18.45;41.30
3294;BME280;1659;51.470;6.770;2023-06-14T02:49:33;101188.78;;;18.43;41.25
3294;BME280;1659;51.470;6.770;2023-06-14T02:51:59;101190.72;;;18.39;41.39
3294;BME280;1659;51.470;6.770;2023-06-14T02:54:26;101197.09;;;18.37;41.44
3294;BME280;1659;51.470;6.770;2023-06-14T02:56:52;101196.28;;;18.35;41.46
3294;BME280;1659;51.470;6.770;2023-06-14T02:59:19;101195.53;;;18.31;41.52
3294;BME280;1659;51.470;6.770;2023-06-14T03:01:46;101189.53;;;18.26;41.47
3294;BME280;1659;51.470;6.770;2023-06-14T03:04:13;101202.09;;;18.24;41.60
3294;BME280;1659;51.470;6.770;2023-06-14T03:06:41;101196.81;;;18.22;41.59
3294;BME280;1659;51.470;6.770;2023-06-14T03:09:09;101199.66;;;18.19;41.60
3294;BME280;1659;51.470;6.770;2023-06-14T03:11:36;101214.88;;;18.17;41.69
3294;BME280;1659;51.470;6.770;2023-06-14T03:14:02;101212.28;;;18.16;41.80
3294;BME280;1659;51.470;6.770;2023-06-14T03:16:29;101214.06;;;18.15;41.74
3294;BME280;1659;51.470;6.770;2023-06-14T03:18:56;101218.38;;;18.19;41.84
3294;BME280;1659;51.470;6.770;2023-06-14T03:21:23;101212.81;;;18.24;41.80
3294;BME280;1659;51.470;6.770;2023-06-14T03:23:51;101225.13;;;18.28;41.68
3294;BME280;1659;51.470;6.770;2023-06-14T03:26:18;101223.03;;;18.35;41.66
3294;BME280;1659;51.470;6.770;2023-06-14T03:28:45;101227.47;;;18.36;41.68
3294;BME280;1659;51.470;6.770;2023-06-14T03:31:11;101221.31;;;18.34;41.68
3294;BME280;1659;51.470;6.770;2023-06-14T03:33:38;101219.63;;;18.31;41.79
3294;BME280;1659;51.470;6.770;2023-06-14T03:36:05;101231.22;;;18.32;41.75
3294;BME280;1659;51.470;6.770;2023-06-14T03:38:33;101220.63;;;18.28;41.74
3294;BME280;1659;51.470;6.770;2023-06-14T03:41:01;101227.81;;;18.28;41.81
3294;BME280;1659;51.470;6.770;2023-06-14T03:43:27;101234.94;;;18.27;41.88
3294;BME280;1659;51.470;6.770;2023-06-14T03:45:55;101235.91;;;18.26;41.83
3294;BME280;1659;51.470;6.770;2023-06-14T03:48:21;101236.75;;;18.27;41.97
3294;BME280;1659;51.470;6.770;2023-06-14T03:50:48;101235.91;;;18.26;41.94
3294;BME280;1659;51.470;6.770;2023-06-14T03:53:15;101244.72;;;18.28;41.90
3294;BME280;1659;51.470;6.770;2023-06-14T03:55:42;101241.84;;;18.33;41.87
3294;BME280;1659;51.470;6.770;2023-06-14T03:58:10;101241.91;;;18.32;41.93
3294;BME280;1659;51.470;6.770;2023-06-14T04:00:38;101250.94;;;18.29;41.84
3294;BME280;1659;51.470;6.770;2023-06-14T04:03:05;101247.53;;;18.25;42.11
3294;BME280;1659;51.470;6.770;2023-06-14T04:05:31;101252.88;;;18.25;42.15
3294;BME280;1659;51.470;6.770;2023-06-14T04:07:58;101258.34;;;18.22;42.25
3294;BME280;1659;51.470;6.770;2023-06-14T04:10:26;101256.56;;;18.23;42.23
3294;BME280;1659;51.470;6.770;2023-06-14T04:12:52;101253.66;;;18.27;42.24
3294;BME280;1659;51.470;6.770;2023-06-14T04:15:20;101259.84;;;18.29;42.25
3294;BME280;1659;51.470;6.770;2023-06-14T04:17:47;101267.59;;;18.36;42.30
3294;BME280;1659;51.470;6.770;2023-06-14T04:20:13;101259.50;;;18.37;42.42
3294;BME280;1659;51.470;6.770;2023-06-14T04:22:40;101269.06;;;18.43;42.35
3294;BME280;1659;51.470;6.770;2023-06-14T04:25:08;101270.69;;;18.47;42.22
3294;BME280;1659;51.470;6.770;2023-06-14T04:27:35;101265.25;;;18.48;42.21
3294;BME280;1659;51.470;6.770;2023-06-14T04:30:02;101264.31;;;18.49;42.30
3294;BME280;1659;51.470;6.770;2023-06-14T04:32:30;101275.69;;;18.55;42.17
3294;BME280;1659;51.470;6.770;2023-06-14T04:34:58;101268.13;;;18.64;42.16
3294;BME280;1659;51.470;6.770;2023-06-14T04:37:27;101276.69;;;18.73;42.00
3294;BME280;1659;51.470;6.770;2023-06-14T04:39:54;101273.72;;;18.79;41.92
3294;BME280;1659;51.470;6.770;2023-06-14T04:42:22;101282.47;;;18.84;41.92
3294;BME280;1659;51.470;6.770;2023-06-14T04:44:51;101285.16;;;18.84;41.83
3294;BME280;1659;51.470;6.770;2023-06-14T04:47:21;101283.13;;;18.89;41.74
3294;BME280;1659;51.470;6.770;2023-06-14T04:49:49;101288.25;;;18.94;41.74
3294;BME280;1659;51.470;6.770;2023-06-14T04:52:18;101293.78;;;18.91;41.79
3294;BME280;1659;51.470;6.770;2023-06-14T04:54:46;101294.41;;;18.96;41.70
3294;BME280;1659;51.470;6.770;2023-06-14T04:57:12;101296.81;;;19.02;41.74
3294;BME280;1659;51.470;6.770;2023-06-14T04:59:42;101296.88;;;19.00;41.62
3294;BME280;1659;51.470;6.770;2023-06-14T05:02:09;101297.63;;;19.04;41.65
3294;BME280;1659;51.470;6.770;2023-06-14T05:04:37;101297.63;;;19.04;41.61
3294;BME280;1659;51.470;6.770;2023-06-14T05:07:06;101297.53;;;19.05;41.68
3294;BME280;1659;51.470;6.770;2023-06-14T05:09:33;101304.28;;;19.14;41.75
3294;BME280;1659;51.470;6.770;2023-06-14T05:11:59;101297.72;;;19.21;41.50
3294;BME280;1659;51.470;6.770;2023-06-14T05:14:26;101301.69;;;19.32;41.34
3294;BME280;1659;51.470;6.770;2023-06-14T05:16:53;101301.13;;;19.44;41.39
3294;BME280;1659;51.470;6.770;2023-06-14T05:19:19;101308.88;;;19.50;41.15
3294;BME280;1659;51.470;6.770;2023-06-14T05:21:47;101309.34;;;19.58;41.31
3294;BME280;1659;51.470;6.770;2023-06-14T05:24:15;101312.34;;;19.71;41.08
3294;BME280;1659;51.470;6.770;2023-06-14T05:26:42;101302.63;;;19.88;40.70
3294;BME280;1659;51.470;6.770;2023-06-14T05:29:08;101309.78;;;20.24;40.29
3294;BME280;1659;51.470;6.770;2023-06-14T05:31:35;101314.25;;;20.93;39.11
3294;BME280;1659;51.470;6.770;2023-06-14T05:34:02;101302.34;;;21.64;37.97
3294;BME280;1659;51.470;6.770;2023-06-14T05:36:28;101294.34;;;22.40;37.04
3294;BME280;1659;51.470;6.770;2023-06-14T05:38:55;101302.13;;;23.04;36.38
3294;BME280;1659;51.470;6.770;2023-06-14T05:41:26;101302.28;;;23.59;35.70
3294;BME280;1659;51.470;6.770;2023-06-14T05:43:53;101309.97;;;24.06;35.23
3294;BME280;1659;51.470;6.770;2023-06-14T05:46:20;101305.94;;;24.39;34.72
3294;BME280;1659;51.470;6.770;2023-06-14T05:48:49;101313.47;;;24.61;34.24
3294;BME280;1659;51.470;6.770;2023-06-14T05:51:16;101315.97;;;24.90;34.26
3294;BME280;1659;51.470;6.770;2023-06-14T05:53:44;101311.28;;;25.18;33.89
3294;BME280;1659;51.470;6.770;2023-06-14T05:56:11;101319.59;;;25.53;33.50
3294;BME280;1659;51.470;6.770;2023-06-14T05:58:39;101315.41;;;25.73;32.92
3294;BME280;1659;51.470;6.770;2023-06-14T06:01:06;101312.00;;;25.95;32.66
3294;BME280;1659;51.470;6.770;2023-06-14T06:03:32;101314.22;;;26.26;32.47
3294;BME280;1659;51.470;6.770;2023-06-14T06:05:59;101315.53;;;26.55;32.13
3294;BME280;1659;51.470;6.770;2023-06-14T06:08:26;101319.09;;;26.91;31.86
3294;BME280;1659;51.470;6.770;2023-06-14T06:10:53;101318.75;;;27.07;31.61
3294;BME280;1659;51.470;6.770;2023-06-14T06:13:19;101325.16;;;27.18;31.27
3294;BME280;1659;51.470;6.770;2023-06-14T06:15:47;101318.84;;;27.17;31.25
3294;BME280;1659;51.470;6.770;2023-06-14T06:18:14;101328.63;;;27.42;30.90
3294;BME280;1659;51.470;6.770;2023-06-14T06:20:40;101321.06;;;27.68;30.77
3294;BME280;1659;51.470;6.770;2023-06-14T06:23:07;101332.75;;;27.92;30.33
3294;BME280;1659;51.470;6.770;2023-06-14T06:25:35;101336.06;;;28.06;30.18
3294;BME280;1659;51.470;6.770;2023-06-14T06:28:02;101338.91;;;28.05;30.09
3294;BME280;1659;51.470;6.770;2023-06-14T06:30:29;101336.19;;;27.94;29.98
3294;BME280;1659;51.470;6.770;2023-06-14T06:32:57;101333.75;;;27.79;30.03
3294;BME280;1659;51.470;6.770;2023-06-14T06:35:24;101342.75;;;27.80;29.78
3294;BME280;1659;51.470;6.770;2023-06-14T06:37:51;101337.34;;;27.91;29.67
3294;BME280;1659;51.470;6.770;2023-06-14T06:40:17;101345.34;;;28.25;29.53
3294;BME280;1659;51.470;6.770;2023-06-14T06:42:44;101347.13;;;28.47;29.15
3294;BME280;1659;51.470;6.770;2023-06-14T06:45:10;101349.06;;;28.56;28.92
3294;BME280;1659;51.470;6.770;2023-06-14T06:47:37;101353.53;;;28.78;28.54
3294;BME280;1659;51.470;6.770;2023-06-14T06:50:06;101355.88;;;28.93;28.17
3294;BME280;1659;51.470;6.770;2023-06-14T06:52:34;101359.34;;;28.74;28.33
3294;BME280;1659;51.470;6.770;2023-06-14T06:55:01;101368.56;;;28.83;27.91
3294;BME280;1659;51.470;6.770;2023-06-14T06:57:27;101380.59;;;28.59;27.57
3294;BME280;1659;51.470;6.770;2023-06-14T06:59:54;101376.06;;;28.37;27.66
3294;BME280;1659;51.470;6.770;2023-06-14T07:02:21;101368.03;;;28.35;27.69
3294;BME280;1659;51.470;6.770;2023-06-14T07:04:47;101371.50;;;28.37;27.83
3294;BME280;1659;51.470;6.770;2023-06-14T07:07:17;101371.94;;;28.54;27.47
3294;BME280;1659;51.470;6.770;2023-06-14T07:09:44;101373.34;;;28.69;27.05
3294;BME280;1659;51.470;6.770;2023-06-14T07:12:11;101375.75;;;28.84;26.70
3294;BME280;1659;51.470;6.770;2023-06-14T07:14:38;101380.78;;;28.67;26.62
3294;BME280;1659;51.470;6.770;2023-06-14T07:17:04;101372.69;;;28.56;26.90
3294;BME280;1659;51.470;6.770;2023-06-14T07:19:31;101389.81;;;28.68;27.05
3294;BME280;1659;51.470;6.770;2023-06-14T07:21:58;101376.97;;;28.58;26.99
3294;BME280;1659;51.470;6.770;2023-06-14T07:24:26;101382.97;;;28.73;26.84
3294;BME280;1659;51.470;6.770;2023-06-14T07:26:53;101384.53;;;28.97;26.72
3294;BME280;1659;51.470;6.770;2023-06-14T07:29:21;101385.00;;;29.23;26.47
3294;BME280;1659;51.470;6.770;2023-06-14T07:31:48;101387.56;;;29.46;26.26
3294;BME280;1659;51.470;6.770;2023-06-14T07:34:14;101380.13;;;29.98;26.06
3294;BME280;1659;51.470;6.770;2023-06-14T07:36:41;101376.72;;;30.06;25.77
3294;BME280;1659;51.470;6.770;2023-06-14T07:39:09;101382.41;;;29.93;25.35
3294;BME280;1659;51.470;6.770;2023-06-14T07:41:37;101384.69;;;29.88;25.72
3294;BME280;1659;51.470;6.770;2023-06-14T07:44:04;101382.69;;;29.80;25.62
3294;BME280;1659;51.470;6.770;2023-06-14T07:46:31;101382.28;;;29.94;25.56
3294;BME280;1659;51.470;6.770;2023-06-14T07:48:57;101382.88;;;30.18;25.33
3294;BME280;1659;51.470;6.770;2023-06-14T07:51:24;101380.91;;;30.20;25.28
3294;BME280;1659;51.470;6.770;2023-06-14T07:53:50;101378.44;;;30.26;25.29
3294;BME280;1659;51.470;6.770;2023-06-14T07:56:17;101387.06;;;30.02;25.37
3294;BME280;1659;51.470;6.770;2023-06-14T07:58:47;101387.03;;;29.92;24.97
3294;BME280;1659;51.470;6.770;2023-06-14T08:01:14;101391.63;;;30.02;25.21
3294;BME280;1659;51.470;6.770;2023-06-14T08:03:42;101384.47;;;30.01;25.07
3294;BME280;1659;51.470;6.770;2023-06-14T08:06:08;101385.72;;;29.97;24.85
3294;BME280;1659;51.470;6.770;2023-06-14T08:08:35;101388.19;;;29.90;25.17
3294;BME280;1659;51.470;6.770;2023-06-14T08:11:01;101388.06;;;30.11;24.93
3294;BME280;1659;51.470;6.770;2023-06-14T08:13:28;101386.66;;;30.36;24.67
3294;BME280;1659;51.470;6.770;2023-06-14T08:15:56;101386.19;;;30.31;24.55
3294;BME280;1659;51.470;6.770;2023-06-14T08:18:23;101393.94;;;30.26;24.98
3294;BME280;1659;51.470;6.770;2023-06-14T08:20:50;101395.22;;;30.31;24.80
3294;BME280;1659;51.470;6.770;2023-06-14T08:23:17;101405.75;;;30.36;25.01
3294;BME280;1659;51.470;6.770;2023-06-14T08:25:46;101398.59;;;30.45;24.71
3294;BME280;1659;51.470;6.770;2023-06-14T08:28:12;101405.06;;;30.63;24.93
3294;BME280;1659;51.470;6.770;2023-06-14T08:30:39;101393.13;;;30.64;24.46
3294;BME280;1659;51.470;6.770;2023-06-14T08:33:07;101397.69;;;30.74;24.48
3294;BME280;1659;51.470;6.770;2023-06-14T08:35:33;101386.66;;;30.65;24.81
3294;BME280;1659;51.470;6.770;2023-06-14T08:38:02;101398.84;;;30.61;24.68
3294;BME280;1659;51.470;6.770;2023-06-14T08:40:30;101401.84;;;30.87;24.37
3294;BME280;1659;51.470;6.770;2023-06-14T08:42:57;101398.13;;;30.79;24.10
3294;BME280;1659;51.470;6.770;2023-06-14T08:45:24;101389.69;;;30.72;24.25
3294;BME280;1659;51.470;6.770;2023-06-14T08:47:51;101396.28;;;30.60;24.55
3294;BME280;1659;51.470;6.770;2023-06-14T08:50:25;101394.69;;;30.57;24.48
3294;BME280;1659;51.470;6.770;2023-06-14T08:52:56;101388.81;;;30.52;24.34
3294;BME280;1659;51.470;6.770;2023-06-14T08:55:26;101389.38;;;30.75;24.03
3294;BME280;1659;51.470;6.770;2023-06-14T08:57:55;101398.25;;;30.87;24.22
3294;BME280;1659;51.470;6.770;2023-06-14T09:00:23;101380.44;;;31.02;24.14
3294;BME280;1659;51.470;6.770;2023-06-14T09:02:49;101384.69;;;31.24;23.66
3294;BME280;1659;51.470;6.770;2023-06-14T09:05:21;101388.16;;;31.17;24.10
3294;BME280;1659;51.470;6.770;2023-06-14T09:07:49;101392.72;;;31.26;24.24
3294;BME280;1659;51.470;6.770;2023-06-14T09:10:16;101383.78;;;31.34;23.89
3294;BME280;1659;51.470;6.770;2023-06-14T09:12:43;101389.53;;;31.40;23.71
3294;BME280;1659;51.470;6.770;2023-06-14T09:15:10;101385.69;;;31.61;23.95
3294;BME280;1659;51.470;6.770;2023-06-14T09:17:37;101392.34;;;31.86;23.49
3294;BME280;1659;51.470;6.770;2023-06-14T09:20:06;101395.78;;;31.88;23.42
3294;BME280;1659;51.470;6.770;2023-06-14T09:22:34;101399.34;;;31.61;24.03
3294;BME280;1659;51.470;6.770;2023-06-14T09:25:02;101405.84;;;31.60;23.90
3294;BME280;1659;51.470;6.770;2023-06-14T09:27:30;101397.75;;;31.31;23.63
3294;BME280;1659;51.470;6.770;2023-06-14T09:29:56;101409.16;;;31.06;23.84
3294;BME280;1659;51.470;6.770;2023-06-14T09:32:23;101399.97;;;30.98;23.98
3294;BME280;1659;51.470;6.770;2023-06-14T09:34:50;101406.28;;;31.18;23.41
3294;BME280;1659;51.470;6.770;2023-06-14T09:37:29;101399.63;;;31.30;23.40
3294;BME280;1659;51.470;6.770;2023-06-14T09:39:56;101391.28;;;31.32;23.51
3294;BME280;1659;51.470;6.770;2023-06-14T09:42:24;101399.47;;;31.69;23.47
3294;BME280;1659;51.470;6.770;2023-06-14T09:44:52;101399.34;;;31.89;23.01
3294;BME280;1659;51.470;6.770;2023-06-14T09:47:19;101400.56;;;31.76;22.97
3294;BME280;1659;51.470;6.770;2023-06-14T09:49:46;101400.78;;;31.65;22.93
3294;BME280;1659;51.470;6.770;2023-06-14T09:52:14;101403.97;;;31.60;22.79
3294;BME280;1659;51.470;6.770;2023-06-14T09:54:42;101401.88;;;31.35;22.93
3294;BME280;1659;51.470;6.770;2023-06-14T09:57:12;101415.84;;;31.32;23.17
3294;BME280;1659;51.470;6.770;2023-06-14T09:59:42;101404.44;;;31.46;23.10
3294;BME280;1659;51.470;6.770;2023-06-14T10:02:13;101406.25;;;31.65;22.82
3294;BME280;1659;51.470;6.770;2023-06-14T10:04:46;101406.34;;;31.73;22.63
3294;BME280;1659;51.470;6.770;2023-06-14T10:07:19;101410.81;;;31.74;22.55
3294;BME280;1659;51.470;6.770;2023-06-14T10:09:47;101390.84;;;31.92;22.27
3294;BME280;1659;51.470;6.770;2023-06-14T10:12:16;101406.44;;;31.81;22.34
3294;BME280;1659;51.470;6.770;2023-06-14T10:14:50;101416.28;;;31.74;22.42
3294;BME280;1659;51.470;6.770;2023-06-14T10:17:25;101411.63;;;31.47;22.46
3294;BME280;1659;51.470;6.770;2023-06-14T10:19:56;101406.78;;;31.31;22.64
3294;BME280;1659;51.470;6.770;2023-06-14T10:22:29;101411.97;;;31.34;22.29
3294;BME280;1659;51.470;6.770;2023-06-14T10:24:56;101402.09;;;31.14;22.67
3294;BME280;1659;51.470;6.770;2023-06-14T10:27:23;101411.19;;;31.04;22.93
3294;BME280;1659;51.470;6.770;2023-06-14T10:30:08;101411.47;;;30.82;22.71
3294;BME280;1659;51.470;6.770;2023-06-14T10:32:35;101407.91;;;30.62;22.84
3294;BME280;1659;51.470;6.770;2023-06-14T10:35:04;101405.44;;;30.88;22.74
3294;BME280;1659;51.470;6.770;2023-06-14T10:37:32;101398.13;;;30.79;22.70
3294;BME280;1659;51.470;6.770;2023-06-14T10:39:58;101401.16;;;30.76;23.08
3294;BME280;1659;51.470;6.770;2023-06-14T10:42:27;101395.69;;;30.66;22.89
3294;BME280;1659;51.470;6.770;2023-06-14T10:44:55;101398.41;;;30.56;23.11
3294;BME280;1659;51.470;6.770;2023-06-14T10:47:27;101390.38;;;30.64;23.18
3294;BME280;1659;51.470;6.770;2023-06-14T10:49:55;101396.28;;;30.79;22.61
3294;BME280;1659;51.470;6.770;2023-06-14T10:52:27;101395.84;;;30.94;22.51
3294;BME280;1659;51.470;6.770;2023-06-14T10:55:08;101401.44;;;31.02;22.86
3294;BME280;1659;51.470;6.770;2023-06-14T10:57:41;101400.44;;;30.93;22.81
3294;BME280;1659;51.470;6.770;2023-06-14T11:00:09;101393.81;;;30.76;22.60
3294;BME280;1659;51.470;6.770;2023-06-14T11:05:52;101393.25;;;30.73;22.56
3294;BME280;1659;51.470;6.770;2023-06-14T11:08:36;101387.78;;;31.02;22.43
3294;BME280;1659;51.470;6.770;2023-06-14T11:11:07;101386.53;;;31.24;22.42
3294;BME280;1659;51.470;6.770;2023-06-14T11:13:37;101380.56;;;31.48;21.91
3294;BME280;1659;51.470;6.770;2023-06-14T11:16:10;101396.75;;;31.22;22.31
3294;BME280;1659;51.470;6.770;2023-06-14T11:18:36;101409.78;;;30.81;22.19
3294;BME280;1659;51.470;6.770;2023-06-14T11:21:04;101408.56;;;30.15;22.92
3294;BME280;1659;51.470;6.770;2023-06-14T11:23:31;101397.06;;;29.92;22.78
3294;BME280;1659;51.470;6.770;2023-06-14T11:25:57;101391.94;;;30.28;22.88
3294;BME280;1659;51.470;6.770;2023-06-14T11:28:24;101398.28;;;30.58;22.56
3294;BME280;1659;51.470;6.770;2023-06-14T11:30:59;101401.41;;;30.82;22.57
3294;BME280;1659;51.470;6.770;2023-06-14T11:33:26;101389.94;;;30.98;22.08
3294;BME280;1659;51.470;6.770;2023-06-14T11:35:53;101395.97;;;31.02;22.00
3294;BME280;1659;51.470;6.770;2023-06-14T11:38:21;101391.78;;;30.98;22.08
3294;BME280;1659;51.470;6.770;2023-06-14T11:40:47;101389.38;;;30.95;22.22
3294;BME280;1659;51.470;6.770;2023-06-14T11:43:14;101398.25;;;30.87;22.10
3294;BME280;1659;51.470;6.770;2023-06-14T11:45:40;101388.81;;;30.62;22.25
3294;BME280;1659;51.470;6.770;2023-06-14T11:48:07;101395.44;;;30.49;22.53
3294;BME280;1659;51.470;6.770;2023-06-14T11:50:37;101392.84;;;30.38;22.76
3294;BME280;1659;51.470;6.770;2023-06-14T11:53:04;101390.53;;;30.34;22.48
3294;BME280;1659;51.470;6.770;2023-06-14T11:55:36;101398.03;;;30.51;22.36
3294;BME280;1659;51.470;6.770;2023-06-14T11:58:04;101411.06;;;30.47;22.74
3294;BME280;1659;51.470;6.770;2023-06-14T12:00:31;101405.59;;;30.47;22.42
3294;BME280;1659;51.470;6.770;2023-06-14T12:02:58;101401.16;;;30.66;22.74
3294;BME280;1659;51.470;6.770;2023-06-14T12:05:25;101397.97;;;30.80;22.79
3294;BME280;1659;51.470;6.770;2023-06-14T12:07:58;101389.81;;;30.41;23.22
3294;BME280;1659;51.470;6.770;2023-06-14T12:10:25;101390.09;;;30.67;22.96
3294;BME280;1659;51.470;6.770;2023-06-14T12:12:56;101390.50;;;30.92;22.76
3294;BME280;1659;51.470;6.770;2023-06-14T12:15:23;101385.00;;;31.12;22.42
3294;BME280;1659;51.470;6.770;2023-06-14T12:17:50;101382.47;;;31.38;22.25
3294;BME280;1659;51.470;6.770;2023-06-14T12:20:18;101382.06;;;31.70;21.86
3294;BME280;1659;51.470;6.770;2023-06-14T12:22:50;101378.56;;;31.78;22.09
3294;BME280;1659;51.470;6.770;2023-06-14T12:25:26;101378.78;;;31.94;21.88
3294;BME280;1659;51.470;6.770;2023-06-14T12:27:54;101384.44;;;31.55;22.29
3294;BME280;1659;51.470;6.770;2023-06-14T12:30:21;101382.38;;;31.30;22.69
3294;BME280;1659;51.470;6.770;2023-06-14T12:32:48;101371.56;;;31.38;22.52
3294;BME280;1659;51.470;6.770;2023-06-14T12:35:17;101374.19;;;31.67;22.45
3294;BME280;1659;51.470;6.770;2023-06-14T12:37:44;101368.88;;;31.84;22.48
3294;BME280;1659;51.470;6.770;2023-06-14T12:40:12;101390.34;;;31.78;22.41
3294;BME280;1659;51.470;6.770;2023-06-14T12:42:38;101380.00;;;31.54;22.64
3294;BME280;1659;51.470;6.770;2023-06-14T12:45:07;101387.53;;;31.33;22.63
3294;BME280;1659;51.470;6.770;2023-06-14T12:47:34;101390.75;;;31.09;23.28
3294;BME280;1659;51.470;6.770;2023-06-14T12:50:01;101389.00;;;31.27;22.81
3294;BME280;1659;51.470;6.770;2023-06-14T12:52:27;101376.38;;;31.54;22.89
3294;BME280;1659;51.470;6.770;2023-06-14T12:54:54;101383.09;;;31.87;22.41
3294;BME280;1659;51.470;6.770;2023-06-14T12:57:20;101385.78;;;31.97;22.49
3294;BME280;1659;51.470;6.770;2023-06-14T12:59:47;101384.44;;;32.11;22.31
3294;BME280;1659;51.470;6.770;2023-06-14T13:02:15;101387.72;;;32.32;22.21
3294;BME280;1659;51.470;6.770;2023-06-14T13:04:43;101387.31;;;32.27;22.44
3294;BME280;1659;51.470;6.770;2023-06-14T13:07:10;101382.63;;;32.37;22.41
3294;BME280;1659;51.470;6.770;2023-06-14T13:09:36;101376.94;;;32.49;22.46
3294;BME280;1659;51.470;6.770;2023-06-14T13:12:04;101378.03;;;32.38;22.54
3294;BME280;1659;51.470;6.770;2023-06-14T13:14:30;101390.94;;;32.28;22.44
3294;BME280;1659;51.470;6.770;2023-06-14T13:16:57;101385.38;;;31.92;22.60